createdAt,value
2023-04-22T00:00:18.432Z,27.63
2023-04-22T00:00:51.710Z,29.35
2023-04-22T00:01:27.763Z,28.58
2023-04-22T00:02:01.077Z,30.10
2023-04-22T00:02:34.624Z,29.02
2023-04-22T00:03:08.852Z,29.67
2023-04-22T00:03:45.051Z,30.40
2023-04-22T00:04:18.873Z,27.63
2023-04-22T00:04:52.871Z,28.08
2023-04-22T00:05:26.422Z,28.60
2023-04-22T00:05:59.799Z,30.90
2023-04-22T00:06:33.111Z,30.05
2023-04-22T00:07:06.290Z,28.60
2023-04-22T00:07:41.205Z,28.73
2023-04-22T00:08:15.623Z,28.02
2023-04-22T00:08:48.793Z,28.38
2023-04-22T00:09:22.174Z,30.25
2023-04-22T00:09:55.462Z,26.92
2023-04-22T00:10:28.738Z,27.77
2023-04-22T00:11:01.912Z,29.13
2023-04-22T00:11:35.091Z,27.73
2023-04-22T00:12:09.097Z,25.20
2023-04-22T00:12:42.474Z,28.45
2023-04-22T00:13:15.854Z,28.33
2023-04-22T00:13:49.338Z,29.20
2023-04-22T00:14:23.131Z,28.95
2023-04-22T00:14:57.026Z,30.90
2023-04-22T00:15:30.713Z,26.88
2023-04-22T00:16:04.675Z,28.23
2023-04-22T00:16:38.191Z,27.85
2023-04-22T00:17:11.889Z,29.00
2023-04-22T00:17:46.308Z,30.92
2023-04-22T00:18:19.684Z,30.42
2023-04-22T00:18:52.854Z,28.48
2023-04-22T00:19:26.229Z,28.25
2023-04-22T00:20:00.539Z,28.67
2023-04-22T00:20:33.819Z,28.73
2023-04-22T00:21:08.348Z,25.13
2023-04-22T00:21:41.404Z,28.35
2023-04-22T00:22:14.587Z,27.10
2023-04-22T00:22:47.864Z,27.50
2023-04-22T00:23:21.350Z,30.58
2023-04-22T00:23:54.838Z,25.60
2023-04-22T00:24:28.216Z,28.52
2023-04-22T00:25:01.290Z,27.30
2023-04-22T00:25:34.874Z,30.08
2023-04-22T00:26:08.261Z,25.80
2023-04-22T00:26:41.742Z,26.48
2023-04-22T00:27:15.431Z,26.42
2023-04-22T00:27:48.722Z,25.42
2023-04-22T00:28:22.205Z,29.10
2023-04-22T00:28:55.680Z,27.38
2023-04-22T00:29:29.063Z,26.15
2023-04-22T00:30:02.246Z,28.80
2023-04-22T00:30:36.308Z,24.67
2023-04-22T00:31:09.788Z,27.33
2023-04-22T00:31:43.298Z,25.95
2023-04-22T00:32:16.711Z,26.83
2023-04-22T00:32:50.252Z,28.48
2023-04-22T00:33:23.668Z,26.55
2023-04-22T00:33:57.045Z,27.33
2023-04-22T00:34:30.323Z,25.95
2023-04-22T00:35:03.612Z,26.75
2023-04-22T00:35:36.985Z,27.58
2023-04-22T00:36:10.270Z,25.65
2023-04-22T00:36:43.449Z,33.80
2023-04-22T00:37:16.831Z,33.42
2023-04-22T00:37:50.113Z,30.58
2023-04-22T00:38:23.599Z,33.38
2023-04-22T00:38:57.801Z,37.22
2023-04-22T00:39:30.972Z,33.60
2023-04-22T00:40:04.257Z,36.33
2023-04-22T00:40:37.646Z,33.85
2023-04-22T00:41:11.325Z,32.20
2023-04-22T00:41:44.819Z,32.13
2023-04-22T00:42:18.092Z,26.13
2023-04-22T00:42:51.678Z,27.80
2023-04-22T00:43:24.968Z,29.65
2023-04-22T00:43:58.341Z,24.80
2023-04-22T00:44:31.623Z,28.45
2023-04-22T00:45:05.621Z,28.27
2023-04-22T00:45:39.210Z,26.00
2023-04-22T00:46:13.425Z,26.65
2023-04-22T00:46:46.731Z,27.20
2023-04-22T00:47:21.503Z,30.92
2023-04-22T00:47:55.072Z,26.95
2023-04-22T00:48:29.066Z,27.35
2023-04-22T00:49:03.491Z,25.15
2023-04-22T00:49:37.301Z,28.88
2023-04-22T00:50:10.980Z,27.33
2023-04-22T00:50:44.473Z,27.50
2023-04-22T00:51:18.360Z,26.52
2023-04-22T00:51:51.839Z,26.73
2023-04-22T00:52:25.024Z,24.98
2023-04-22T00:52:58.197Z,28.50
2023-04-22T00:53:31.575Z,27.25
2023-04-22T00:54:06.512Z,27.20
2023-04-22T00:54:39.980Z,27.40
2023-04-22T00:55:13.474Z,26.73
2023-04-22T00:55:47.260Z,27.33
2023-04-22T00:56:21.156Z,25.97
2023-04-22T00:56:54.533Z,25.40
2023-04-22T00:57:27.920Z,26.08
2023-04-22T00:58:01.815Z,26.10
2023-04-22T00:58:35.605Z,26.90
2023-04-22T00:59:10.116Z,29.70
2023-04-22T00:59:43.597Z,31.48
2023-04-22T01:00:17.083Z,33.10
2023-04-22T01:00:50.512Z,30.20
2023-04-22T01:01:24.170Z,29.55
2023-04-22T01:01:58.702Z,31.77
2023-04-22T01:02:32.227Z,28.05
2023-04-22T01:03:07.310Z,30.40
2023-04-22T01:03:41.376Z,30.67
2023-04-22T01:04:16.055Z,33.88
2023-04-22T01:04:50.299Z,28.65
2023-04-22T01:05:27.673Z,29.83
2023-04-22T01:06:00.854Z,29.45
2023-04-22T01:06:35.520Z,28.55
2023-04-22T01:07:08.944Z,28.52
2023-04-22T01:07:42.333Z,27.63
2023-04-22T01:08:15.605Z,26.20
2023-04-22T01:08:48.892Z,27.27
2023-04-22T01:09:22.174Z,27.35
2023-04-22T01:09:55.585Z,26.25
2023-04-22T01:10:28.830Z,26.80
2023-04-22T01:11:03.132Z,27.48
2023-04-22T01:11:37.036Z,30.23
2023-04-22T01:12:10.616Z,26.95
2023-04-22T01:12:43.795Z,27.70
2023-04-22T01:13:17.278Z,26.20
2023-04-22T01:13:50.963Z,26.27
2023-04-22T01:14:24.553Z,27.88
2023-04-22T01:14:57.962Z,28.58
2023-04-22T01:15:31.321Z,27.48
2023-04-22T01:16:06.684Z,25.17
2023-04-22T01:16:41.504Z,26.23
2023-04-22T01:17:16.488Z,27.23
2023-04-22T01:17:49.923Z,26.23
2023-04-22T01:18:23.454Z,25.70
2023-04-22T01:18:56.942Z,27.17
2023-04-22T01:19:31.045Z,25.30
2023-04-22T01:20:05.163Z,26.27
2023-04-22T01:20:38.624Z,26.30
2023-04-22T01:21:12.417Z,26.90
2023-04-22T01:21:46.622Z,26.67
2023-04-22T01:22:20.413Z,24.42
2023-04-22T01:22:54.206Z,26.27
2023-04-22T01:23:27.797Z,26.77
2023-04-22T01:24:04.057Z,23.85
2023-04-22T01:24:37.320Z,24.37
2023-04-22T01:25:11.830Z,27.08
2023-04-22T01:25:45.111Z,26.73
2023-04-22T01:26:18.289Z,26.38
2023-04-22T01:26:51.878Z,24.15
2023-04-22T01:27:25.270Z,26.65
2023-04-22T01:27:58.855Z,25.00
2023-04-22T01:28:32.780Z,25.90
2023-04-22T01:29:06.535Z,25.48
2023-04-22T01:29:40.123Z,25.33
2023-04-22T01:30:13.709Z,27.77
2023-04-22T01:30:49.147Z,26.73
2023-04-22T01:31:22.630Z,26.42
2023-04-22T01:31:56.644Z,24.33
2023-04-22T01:32:31.023Z,27.60
2023-04-22T01:33:04.658Z,24.75
2023-04-22T01:33:38.528Z,25.83
2023-04-22T01:34:12.403Z,26.63
2023-04-22T01:34:45.684Z,24.48
2023-04-22T01:35:18.958Z,23.77
2023-04-22T01:35:52.265Z,26.03
2023-04-22T01:36:26.033Z,24.42
2023-04-22T01:36:59.829Z,26.52
2023-04-22T01:37:33.418Z,26.30
2023-04-22T01:38:08.025Z,26.63
2023-04-22T01:38:41.627Z,27.20
2023-04-22T01:39:14.789Z,24.85
2023-04-22T01:39:48.790Z,26.17
2023-04-22T01:40:23.090Z,25.48
2023-04-22T01:40:56.478Z,27.10
2023-04-22T01:41:30.472Z,25.03
2023-04-22T01:42:04.158Z,25.17
2023-04-22T01:42:37.548Z,25.20
2023-04-22T01:43:10.829Z,27.20
2023-04-22T01:43:45.331Z,25.10
2023-04-22T01:44:20.057Z,28.83
2023-04-22T01:44:53.432Z,25.35
2023-04-22T01:45:27.425Z,24.27
2023-04-22T01:46:05.893Z,26.00
2023-04-22T01:46:39.123Z,23.80
2023-04-22T01:47:13.927Z,28.37
2023-04-22T01:47:47.448Z,23.63
2023-04-22T01:48:20.744Z,26.33
2023-04-22T01:48:54.178Z,24.95
2023-04-22T01:49:28.682Z,26.13
2023-04-22T01:50:02.194Z,31.17
2023-04-22T01:50:35.551Z,26.50
2023-04-22T01:51:08.833Z,26.27
2023-04-22T01:51:42.933Z,28.08
2023-04-22T01:52:16.825Z,25.17
2023-04-22T01:52:50.208Z,26.20
2023-04-22T01:53:23.896Z,26.02
2023-04-22T01:53:59.529Z,25.80
2023-04-22T01:54:33.220Z,27.60
2023-04-22T01:55:07.012Z,26.83
2023-04-22T01:55:40.199Z,26.02
2023-04-22T01:56:13.580Z,24.23
2023-04-22T01:56:53.716Z,25.75
2023-04-22T01:57:27.102Z,24.80
2023-04-22T01:58:00.485Z,26.23
2023-04-22T01:58:34.273Z,25.27
2023-04-22T01:59:08.268Z,23.48
2023-04-22T01:59:43.505Z,26.25
2023-04-22T02:00:17.285Z,23.70
2023-04-22T02:00:54.356Z,24.38
2023-04-22T02:01:27.905Z,25.40
2023-04-22T02:02:01.422Z,25.85
2023-04-22T02:02:35.092Z,23.27
2023-04-22T02:03:08.907Z,24.60
2023-04-22T02:03:42.952Z,24.00
2023-04-22T02:04:18.445Z,23.47
2023-04-22T02:04:51.988Z,22.13
2023-04-22T02:05:25.408Z,23.98
2023-04-22T02:05:58.903Z,24.85
2023-04-22T02:06:32.901Z,23.63
2023-04-22T02:07:06.182Z,23.80
2023-04-22T02:07:42.232Z,25.30
2023-04-22T02:08:15.601Z,24.50
2023-04-22T02:08:50.932Z,22.38
2023-04-22T02:09:24.211Z,24.05
2023-04-22T02:09:57.694Z,23.73
2023-04-22T02:10:31.283Z,25.52
2023-04-22T02:11:04.569Z,24.15
2023-04-22T02:11:37.855Z,25.10
2023-04-22T02:12:11.531Z,23.58
2023-04-22T02:12:46.763Z,23.70
2023-04-22T02:13:21.164Z,22.75
2023-04-22T02:13:55.166Z,24.20
2023-04-22T02:14:28.601Z,22.90
2023-04-22T02:15:02.027Z,24.92
2023-04-22T02:15:39.880Z,24.70
2023-04-22T02:16:13.153Z,24.70
2023-04-22T02:16:46.479Z,26.42
2023-04-22T02:17:19.880Z,23.90
2023-04-22T02:17:53.548Z,22.92
2023-04-22T02:18:26.825Z,23.35
2023-04-22T02:19:00.738Z,23.77
2023-04-22T02:19:33.830Z,25.23
2023-04-22T02:20:08.609Z,25.77
2023-04-22T02:20:42.106Z,24.45
2023-04-22T02:21:15.892Z,23.90
2023-04-22T02:21:49.391Z,23.85
2023-04-22T02:22:24.398Z,24.77
2023-04-22T02:22:57.782Z,23.83
2023-04-22T02:23:31.056Z,25.55
2023-04-22T02:24:04.234Z,22.80
2023-04-22T02:24:37.519Z,22.80
2023-04-22T02:25:13.053Z,23.70
2023-04-22T02:25:51.046Z,22.10
2023-04-22T02:26:26.634Z,23.65
2023-04-22T02:27:01.398Z,22.10
2023-04-22T02:27:35.912Z,21.40
2023-04-22T02:28:09.284Z,21.23
2023-04-22T02:28:43.284Z,21.25
2023-04-22T02:29:19.938Z,22.73
2023-04-22T02:29:53.527Z,22.15
2023-04-22T02:30:27.109Z,25.45
2023-04-22T02:31:00.777Z,20.95
2023-04-22T02:31:34.223Z,22.05
2023-04-22T02:32:08.180Z,20.30
2023-04-22T02:32:41.605Z,19.80
2023-04-22T02:33:15.149Z,23.35
2023-04-22T02:33:48.432Z,21.50
2023-04-22T02:34:22.338Z,22.73
2023-04-22T02:34:56.018Z,20.73
2023-04-22T02:35:29.192Z,24.40
2023-04-22T02:36:02.679Z,20.95
2023-04-22T02:36:36.171Z,23.13
2023-04-22T02:37:09.550Z,22.17
2023-04-22T02:37:42.929Z,24.77
2023-04-22T02:38:16.213Z,20.53
2023-04-22T02:38:49.698Z,22.30
2023-04-22T02:39:23.077Z,20.52
2023-04-22T02:39:56.263Z,21.35
2023-04-22T02:40:29.872Z,19.08
2023-04-22T02:41:03.322Z,22.52
2023-04-22T02:41:37.423Z,21.77
2023-04-22T02:42:11.219Z,22.27
2023-04-22T02:42:44.909Z,21.73
2023-04-22T02:43:18.308Z,23.65
2023-04-22T02:43:51.775Z,22.93
2023-04-22T02:44:24.962Z,20.02
2023-04-22T02:44:58.640Z,21.48
2023-04-22T02:45:31.921Z,22.30
2023-04-22T02:46:05.620Z,21.27
2023-04-22T02:46:39.132Z,23.80
2023-04-22T02:47:12.494Z,22.48
2023-04-22T02:47:46.722Z,22.88
2023-04-22T02:48:21.293Z,22.17
2023-04-22T02:48:55.089Z,23.13
2023-04-22T02:49:28.581Z,23.03
2023-04-22T02:50:02.057Z,21.52
2023-04-22T02:50:35.438Z,21.60
2023-04-22T02:51:08.922Z,21.75
2023-04-22T02:51:42.307Z,23.48
2023-04-22T02:52:15.588Z,22.33
2023-04-22T02:52:48.865Z,22.45
2023-04-22T02:53:22.158Z,22.27
2023-04-22T02:53:55.639Z,20.65
2023-04-22T02:54:29.015Z,22.15
2023-04-22T02:55:02.195Z,23.03
2023-04-22T02:55:35.686Z,21.98
2023-04-22T02:56:09.777Z,20.10
2023-04-22T02:56:43.055Z,21.40
2023-04-22T02:57:16.440Z,20.45
2023-04-22T02:57:49.625Z,21.15
2023-04-22T02:58:23.002Z,21.05
2023-04-22T02:58:56.279Z,24.35
2023-04-22T02:59:29.660Z,19.95
2023-04-22T03:00:03.248Z,21.20
2023-04-22T03:00:37.074Z,24.80
2023-04-22T03:01:10.451Z,19.65
2023-04-22T03:01:44.222Z,23.35
2023-04-22T03:02:26.840Z,22.50
2023-04-22T03:03:20.737Z,19.83
2023-04-22T03:03:54.479Z,21.58
2023-04-22T03:04:29.756Z,22.58
2023-04-22T03:05:03.385Z,21.58
2023-04-22T03:05:37.176Z,20.50
2023-04-22T03:06:10.666Z,20.63
2023-04-22T03:06:44.046Z,22.90
2023-04-22T03:07:17.240Z,22.35
2023-04-22T03:07:50.913Z,21.38
2023-04-22T03:08:26.135Z,20.58
2023-04-22T03:08:59.448Z,22.80
2023-04-22T03:09:33.009Z,21.65
2023-04-22T03:10:06.795Z,19.50
2023-04-22T03:10:40.602Z,18.77
2023-04-22T03:11:14.892Z,21.40
2023-04-22T03:11:48.708Z,22.77
2023-04-22T03:12:22.492Z,20.93
2023-04-22T03:12:55.455Z,23.02
2023-04-22T03:13:28.841Z,23.33
2023-04-22T03:14:02.639Z,24.02
2023-04-22T03:14:36.016Z,22.33
2023-04-22T03:15:09.803Z,21.30
2023-04-22T03:15:43.096Z,22.73
2023-04-22T03:16:17.705Z,22.42
2023-04-22T03:16:51.598Z,23.98
2023-04-22T03:17:26.410Z,26.17
2023-04-22T03:17:59.573Z,23.37
2023-04-22T03:18:33.069Z,22.73
2023-04-22T03:19:06.856Z,24.92
2023-04-22T03:19:40.489Z,21.15
2023-04-22T03:20:14.243Z,23.48
2023-04-22T03:20:48.337Z,22.08
2023-04-22T03:21:22.234Z,23.42
2023-04-22T03:21:57.563Z,22.58
2023-04-22T03:22:30.636Z,23.00
2023-04-22T03:23:08.121Z,24.35
2023-04-22T03:23:42.731Z,23.07
2023-04-22T03:24:16.828Z,23.50
2023-04-22T03:24:55.121Z,24.55
2023-04-22T03:25:28.611Z,25.42
2023-04-22T03:26:03.138Z,28.67
2023-04-22T03:26:36.403Z,28.35
2023-04-22T03:27:12.852Z,29.40
2023-04-22T03:27:46.034Z,24.45
2023-04-22T03:28:19.439Z,25.83
2023-04-22T03:28:52.804Z,32.70
2023-04-22T03:29:26.175Z,34.70
2023-04-22T03:29:59.475Z,41.45
2023-04-22T03:30:32.840Z,53.70
2023-04-22T03:31:06.529Z,52.60
2023-04-22T03:31:39.743Z,49.28
2023-04-22T03:32:13.275Z,47.78
2023-04-22T03:32:46.722Z,41.55
2023-04-22T03:33:40.233Z,30.05
2023-04-22T03:34:21.918Z,32.67
2023-04-22T03:34:56.114Z,25.80
2023-04-22T03:35:29.703Z,30.00
2023-04-22T03:36:06.979Z,32.30
2023-04-22T03:36:40.983Z,28.33
2023-04-22T03:37:14.354Z,30.20
2023-04-22T03:37:48.042Z,28.75
2023-04-22T03:38:25.418Z,27.20
2023-04-22T03:38:59.120Z,27.30
2023-04-22T03:39:33.210Z,26.42
2023-04-22T03:40:07.720Z,24.92
2023-04-22T03:40:41.513Z,24.52
2023-04-22T03:41:27.077Z,28.30
2023-04-22T03:42:00.679Z,23.92
2023-04-22T03:42:34.976Z,26.83
2023-04-22T03:43:08.358Z,24.02
2023-04-22T03:43:41.735Z,24.90
2023-04-22T03:44:16.044Z,22.70
2023-04-22T03:44:50.040Z,23.40
2023-04-22T03:45:28.029Z,23.77
2023-04-22T03:46:17.247Z,21.75
2023-04-22T03:46:58.445Z,22.27
2023-04-22T03:47:37.019Z,22.93
2023-04-22T03:48:20.679Z,23.80
2023-04-22T03:48:56.829Z,20.67
2023-04-22T03:49:34.408Z,20.48
2023-04-22T03:50:07.863Z,22.77
2023-04-22T03:50:41.788Z,21.52
2023-04-22T03:51:15.269Z,24.52
2023-04-22T03:51:48.754Z,23.17
2023-04-22T03:52:25.316Z,21.77
2023-04-22T03:53:04.525Z,21.95
2023-04-22T03:53:37.913Z,22.77
2023-04-22T03:54:12.118Z,23.60
2023-04-22T03:54:51.848Z,22.15
2023-04-22T03:55:25.340Z,23.25
2023-04-22T03:55:59.850Z,24.10
2023-04-22T03:56:34.251Z,25.55
2023-04-22T03:57:08.038Z,23.20
2023-04-22T03:57:41.632Z,24.08
2023-04-22T03:58:16.051Z,22.73
2023-04-22T03:58:49.518Z,23.45
2023-04-22T03:59:22.899Z,23.57
2023-04-22T03:59:56.487Z,21.88
2023-04-22T04:00:29.767Z,23.58
2023-04-22T04:01:13.726Z,25.23
2023-04-22T04:01:51.695Z,26.02
2023-04-22T04:02:27.363Z,24.00
2023-04-22T04:03:01.835Z,24.23
2023-04-22T04:03:36.669Z,23.70
2023-04-22T04:04:10.631Z,25.02
2023-04-22T04:04:57.212Z,24.17
2023-04-22T04:05:31.028Z,24.37
2023-04-22T04:06:04.841Z,25.60
2023-04-22T04:06:38.108Z,24.25
2023-04-22T04:07:11.496Z,21.38
2023-04-22T04:07:44.663Z,23.65
2023-04-22T04:08:19.373Z,21.52
2023-04-22T04:08:52.551Z,25.65
2023-04-22T04:09:25.938Z,22.83
2023-04-22T04:09:59.115Z,24.30
2023-04-22T04:10:32.405Z,25.92
2023-04-22T04:11:07.006Z,22.07
2023-04-22T04:11:41.437Z,23.75
2023-04-22T04:12:16.027Z,23.05
2023-04-22T04:12:51.150Z,23.10
2023-04-22T04:13:27.090Z,21.60
2023-04-22T04:14:24.022Z,23.55
2023-04-22T04:14:58.327Z,25.25
2023-04-22T04:15:31.604Z,22.85
2023-04-22T04:16:05.550Z,22.08
2023-04-22T04:16:39.801Z,23.08
2023-04-22T04:17:18.447Z,23.10
2023-04-22T04:17:52.258Z,23.02
2023-04-22T04:18:27.528Z,23.67
2023-04-22T04:19:01.032Z,22.95
2023-04-22T04:19:34.602Z,21.08
2023-04-22T04:20:09.326Z,22.55
2023-04-22T04:20:42.798Z,20.52
2023-04-22T04:21:16.090Z,26.15
2023-04-22T04:21:53.971Z,23.00
2023-04-22T04:22:29.810Z,25.25
2023-04-22T04:23:05.970Z,23.70
2023-04-22T04:23:39.455Z,25.90
2023-04-22T04:24:12.726Z,25.27
2023-04-22T04:24:51.433Z,24.58
2023-04-22T04:25:30.032Z,22.88
2023-04-22T04:26:03.825Z,27.55
2023-04-22T04:26:38.408Z,26.30
2023-04-22T04:27:19.914Z,23.13
2023-04-22T04:27:58.432Z,23.70
2023-04-22T04:28:33.333Z,23.60
2023-04-22T04:29:09.173Z,29.97
2023-04-22T04:29:45.632Z,25.90
2023-04-22T04:30:26.179Z,25.13
2023-04-22T04:31:01.342Z,23.73
2023-04-22T04:31:34.592Z,23.02
2023-04-22T04:32:10.827Z,25.92
2023-04-22T04:32:46.101Z,26.00
2023-04-22T04:33:22.010Z,26.48
2023-04-22T04:33:57.741Z,24.77
2023-04-22T04:34:32.757Z,29.33
2023-04-22T04:35:06.652Z,29.37
2023-04-22T04:35:40.131Z,25.65
2023-04-22T04:36:15.377Z,27.88
2023-04-22T04:36:49.767Z,25.70
2023-04-22T04:37:29.190Z,25.98
2023-04-22T04:38:07.141Z,27.38
2023-04-22T04:38:41.488Z,34.45
2023-04-22T04:39:19.372Z,32.58
2023-04-22T04:39:52.961Z,32.22
2023-04-22T04:40:31.990Z,27.08
2023-04-22T04:41:14.885Z,24.67
2023-04-22T04:41:49.594Z,26.33
2023-04-22T04:42:25.029Z,29.60
2023-04-22T04:43:08.947Z,28.08
2023-04-22T04:43:50.939Z,27.08
2023-04-22T04:44:32.313Z,26.23
2023-04-22T04:45:09.832Z,24.20
2023-04-22T04:45:48.779Z,28.25
2023-04-22T04:46:30.013Z,27.90
2023-04-22T04:47:04.546Z,26.45
2023-04-22T04:47:38.516Z,26.50
2023-04-22T04:48:36.511Z,23.92
2023-04-22T04:49:13.299Z,23.60
2023-04-22T04:49:59.181Z,26.20
2023-04-22T04:50:32.567Z,26.40
2023-04-22T04:51:08.697Z,27.80
2023-04-22T04:51:50.280Z,29.17
2023-04-22T04:52:24.086Z,28.02
2023-04-22T04:52:58.695Z,24.60
2023-04-22T04:53:38.859Z,26.38
2023-04-22T04:54:12.412Z,25.27
2023-04-22T04:54:46.820Z,21.90
2023-04-22T04:55:20.198Z,28.10
2023-04-22T04:55:53.588Z,27.58
2023-04-22T04:56:29.219Z,25.88
2023-04-22T04:57:02.609Z,23.50
2023-04-22T04:57:38.388Z,25.08
2023-04-22T04:58:12.436Z,28.33
2023-04-22T04:58:45.822Z,24.77
2023-04-22T04:59:25.139Z,23.52
2023-04-22T04:59:59.546Z,24.23
2023-04-22T05:00:36.940Z,25.70
2023-04-22T05:01:11.523Z,23.60
2023-04-22T05:01:45.265Z,23.92
2023-04-22T05:02:19.868Z,27.25
2023-04-22T05:02:53.701Z,26.33
2023-04-22T05:03:36.720Z,25.17
2023-04-22T05:04:14.435Z,28.00
2023-04-22T05:04:50.121Z,22.50
2023-04-22T05:05:25.212Z,24.02
2023-04-22T05:06:11.685Z,27.67
2023-04-22T05:06:47.821Z,22.65
2023-04-22T05:07:21.928Z,25.55
2023-04-22T05:07:57.466Z,23.92
2023-04-22T05:08:31.345Z,23.80
2023-04-22T05:09:11.607Z,23.30
2023-04-22T05:09:45.596Z,24.75
2023-04-22T05:10:19.481Z,24.73
2023-04-22T05:10:53.891Z,26.05
2023-04-22T05:11:27.807Z,23.95
2023-04-22T05:12:01.984Z,25.77
2023-04-22T05:12:36.192Z,25.58
2023-04-22T05:13:12.240Z,23.95
2023-04-22T05:13:48.691Z,23.92
2023-04-22T05:14:28.320Z,22.23
2023-04-22T05:15:02.312Z,22.45
2023-04-22T05:15:36.838Z,21.45
2023-04-22T05:16:10.837Z,27.77
2023-04-22T05:16:44.962Z,23.05
2023-04-22T05:17:21.628Z,25.25
2023-04-22T05:17:56.750Z,22.83
2023-04-22T05:18:32.564Z,27.23
2023-04-22T05:19:11.170Z,23.92
2023-04-22T05:19:47.094Z,22.67
2023-04-22T05:20:21.820Z,23.95
2023-04-22T05:20:56.112Z,25.55
2023-04-22T05:21:30.211Z,26.35
2023-04-22T05:22:03.804Z,24.17
2023-04-22T05:22:37.897Z,26.25
2023-04-22T05:23:11.787Z,25.23
2023-04-22T05:23:45.893Z,24.43
2023-04-22T05:24:20.397Z,23.48
2023-04-22T05:24:54.292Z,26.95
2023-04-22T05:25:28.086Z,23.05
2023-04-22T05:26:08.432Z,20.83
2023-04-22T05:26:45.604Z,24.25
2023-04-22T05:27:26.362Z,24.23
2023-04-22T05:28:00.075Z,23.17
2023-04-22T05:28:38.039Z,21.65
2023-04-22T05:29:11.832Z,25.02
2023-04-22T05:29:45.416Z,19.53
2023-04-22T05:30:20.682Z,25.80
2023-04-22T05:30:59.390Z,22.73
2023-04-22T05:31:35.317Z,21.52
2023-04-22T05:32:09.347Z,25.45
2023-04-22T05:32:43.722Z,22.15
2023-04-22T05:33:17.241Z,22.58
2023-04-22T05:33:50.771Z,21.05
2023-04-22T05:34:24.054Z,21.50
2023-04-22T05:35:00.297Z,23.38
2023-04-22T05:35:33.682Z,24.50
2023-04-22T05:36:07.176Z,23.33
2023-04-22T05:36:41.365Z,22.13
2023-04-22T05:37:14.554Z,22.17
2023-04-22T05:37:49.893Z,21.10
2023-04-22T05:38:24.402Z,21.95
2023-04-22T05:38:59.912Z,19.20
2023-04-22T05:39:34.426Z,20.80
2023-04-22T05:40:11.184Z,22.20
2023-04-22T05:40:44.685Z,20.38
2023-04-22T05:41:20.822Z,19.13
2023-04-22T05:41:55.472Z,21.25
2023-04-22T05:42:29.237Z,20.92
2023-04-22T05:43:02.607Z,20.17
2023-04-22T05:43:36.193Z,19.13
2023-04-22T05:44:18.199Z,23.30
2023-04-22T05:44:52.483Z,20.80
2023-04-22T05:45:26.990Z,22.08
2023-04-22T05:46:00.850Z,20.38
2023-04-22T05:46:35.534Z,19.38
2023-04-22T05:47:10.109Z,20.80
2023-04-22T05:47:44.001Z,21.02
2023-04-22T05:48:17.693Z,19.92
2023-04-22T05:49:02.030Z,20.10
2023-04-22T05:49:53.846Z,20.08
2023-04-22T05:50:37.979Z,18.98
2023-04-22T05:51:14.534Z,20.65
2023-04-22T05:51:47.819Z,21.52
2023-04-22T05:52:24.954Z,23.55
2023-04-22T05:53:13.944Z,20.70
2023-04-22T05:53:48.758Z,22.93
2023-04-22T05:54:23.429Z,22.80
2023-04-22T05:54:57.261Z,23.00
2023-04-22T05:55:31.067Z,18.20
2023-04-22T05:56:04.533Z,22.88
2023-04-22T05:56:38.432Z,20.42
2023-04-22T05:57:11.809Z,20.27
2023-04-22T05:57:45.194Z,23.35
2023-04-22T05:58:31.581Z,22.88
2023-04-22T05:59:12.027Z,18.40
2023-04-22T05:59:45.315Z,19.27
2023-04-22T06:00:19.509Z,18.77
2023-04-22T06:01:05.696Z,18.25
2023-04-22T06:01:57.643Z,19.27
2023-04-22T06:02:31.978Z,18.23
2023-04-22T06:03:05.447Z,20.15
2023-04-22T06:03:38.949Z,20.33
2023-04-22T06:04:13.322Z,21.30
2023-04-22T06:04:46.968Z,18.30
2023-04-22T06:05:21.025Z,19.33
2023-04-22T06:05:54.675Z,17.87
2023-04-22T06:06:28.057Z,21.17
2023-04-22T06:07:01.438Z,19.23
2023-04-22T06:07:34.916Z,20.15
2023-04-22T06:08:08.333Z,19.85
2023-04-22T06:08:42.098Z,18.88
2023-04-22T06:09:16.501Z,18.17
2023-04-22T06:09:49.782Z,19.00
2023-04-22T06:10:23.064Z,16.92
2023-04-22T06:10:56.393Z,17.85
2023-04-22T06:11:32.693Z,18.37
2023-04-22T06:12:06.793Z,17.55
2023-04-22T06:12:41.195Z,18.63
2023-04-22T06:13:14.781Z,17.88
2023-04-22T06:13:48.175Z,19.95
2023-04-22T06:14:22.270Z,19.75
2023-04-22T06:14:55.751Z,22.83
2023-04-22T06:15:29.459Z,17.95
2023-04-22T06:16:05.588Z,18.92
2023-04-22T06:16:40.510Z,18.55
2023-04-22T06:17:14.201Z,19.97
2023-04-22T06:17:48.949Z,18.50
2023-04-22T06:18:22.510Z,17.58
2023-04-22T06:18:55.997Z,20.27
2023-04-22T06:19:30.394Z,20.80
2023-04-22T06:20:04.185Z,16.88
2023-04-22T06:20:37.976Z,19.65
2023-04-22T06:21:11.464Z,18.13
2023-04-22T06:21:44.948Z,19.05
2023-04-22T06:22:18.634Z,19.77
2023-04-22T06:22:52.941Z,14.97
2023-04-22T06:23:26.630Z,19.08
2023-04-22T06:24:00.420Z,18.25
2023-04-22T06:24:33.815Z,17.80
2023-04-22T06:25:07.188Z,19.20
2023-04-22T06:25:40.687Z,18.48
2023-04-22T06:26:14.155Z,17.92
2023-04-22T06:26:47.648Z,20.58
2023-04-22T06:27:21.025Z,17.77
2023-04-22T06:27:54.613Z,20.00
2023-04-22T06:28:29.425Z,20.33
2023-04-22T06:29:06.395Z,17.67
2023-04-22T06:29:40.859Z,19.77
2023-04-22T06:30:14.389Z,16.48
2023-04-22T06:30:47.875Z,18.92
2023-04-22T06:31:22.111Z,18.92
2023-04-22T06:31:55.896Z,18.50
2023-04-22T06:32:30.386Z,18.90
2023-04-22T06:33:03.802Z,15.75
2023-04-22T06:33:37.654Z,16.95
2023-04-22T06:34:11.350Z,17.57
2023-04-22T06:34:45.234Z,19.25
2023-04-22T06:35:18.619Z,15.70
2023-04-22T06:35:52.107Z,18.40
2023-04-22T06:36:25.858Z,18.95
2023-04-22T06:37:04.192Z,16.55
2023-04-22T06:37:37.574Z,16.73
2023-04-22T06:38:13.332Z,18.05
2023-04-22T06:38:57.762Z,15.40
2023-04-22T06:39:49.472Z,15.18
2023-04-22T06:40:36.474Z,16.73
2023-04-22T06:41:23.372Z,18.85
2023-04-22T06:41:58.902Z,14.77
2023-04-22T06:42:44.684Z,21.27
2023-04-22T06:43:53.383Z,15.07
2023-04-22T06:44:45.003Z,15.35
2023-04-22T06:45:33.024Z,17.92
2023-04-22T06:46:29.266Z,16.27
2023-04-22T06:47:25.579Z,16.00
2023-04-22T06:48:05.702Z,17.05
2023-04-22T06:48:53.109Z,14.97
2023-04-22T06:49:55.167Z,16.17
2023-04-22T06:50:37.563Z,13.73
2023-04-22T06:51:11.657Z,13.50
2023-04-22T06:51:45.154Z,16.60
2023-04-22T06:52:18.939Z,16.83
2023-04-22T06:52:52.427Z,13.77
2023-04-22T06:53:26.304Z,17.52
2023-04-22T06:53:59.703Z,16.70
2023-04-22T06:54:33.289Z,17.27
2023-04-22T06:55:07.193Z,16.90
2023-04-22T06:55:40.974Z,15.77
2023-04-22T06:56:14.456Z,17.83
2023-04-22T06:56:47.640Z,17.45
2023-04-22T06:57:21.331Z,15.07
2023-04-22T06:57:54.407Z,19.40
2023-04-22T06:58:27.680Z,17.33
2023-04-22T06:59:01.572Z,17.67
2023-04-22T06:59:37.262Z,16.08
2023-04-22T07:00:11.224Z,15.27
2023-04-22T07:00:45.828Z,16.40
2023-04-22T07:01:20.247Z,16.60
2023-04-22T07:01:53.429Z,16.70
2023-04-22T07:02:27.358Z,15.70
2023-04-22T07:03:00.844Z,16.67
2023-04-22T07:03:34.979Z,14.60
2023-04-22T07:04:12.923Z,17.77
2023-04-22T07:04:46.254Z,17.60
2023-04-22T07:05:20.253Z,14.77
2023-04-22T07:05:54.451Z,15.68
2023-04-22T07:06:28.453Z,15.77
2023-04-22T07:07:02.651Z,16.13
2023-04-22T07:07:36.250Z,16.08
2023-04-22T07:08:09.524Z,18.48
2023-04-22T07:08:43.313Z,17.95
2023-04-22T07:09:16.898Z,16.45
2023-04-22T07:09:50.689Z,18.05
2023-04-22T07:10:23.870Z,16.77
2023-04-22T07:11:28.173Z,15.18
2023-04-22T07:12:07.698Z,16.70
2023-04-22T07:12:41.390Z,18.00
2023-04-22T07:13:14.675Z,15.18
2023-04-22T07:13:47.957Z,17.63
2023-04-22T07:14:21.132Z,18.55
2023-04-22T07:14:54.618Z,14.65
2023-04-22T07:15:27.589Z,16.08
2023-04-22T07:16:01.526Z,16.38
2023-04-22T07:16:35.030Z,15.63
2023-04-22T07:17:08.352Z,15.57
2023-04-22T07:17:41.758Z,17.13
2023-04-22T07:18:15.115Z,16.93
2023-04-22T07:18:48.398Z,17.63
2023-04-22T07:19:21.877Z,16.83
2023-04-22T07:19:55.272Z,15.70
2023-04-22T07:20:28.547Z,17.38
2023-04-22T07:21:02.027Z,18.10
2023-04-22T07:21:35.209Z,16.08
2023-04-22T07:22:08.279Z,17.95
2023-04-22T07:22:41.666Z,17.60
2023-04-22T07:23:15.074Z,15.95
2023-04-22T07:23:48.428Z,16.70
2023-04-22T07:24:21.912Z,15.00
2023-04-22T07:24:55.398Z,15.93
2023-04-22T07:25:28.783Z,18.23
2023-04-22T07:26:02.371Z,15.07
2023-04-22T07:26:35.756Z,17.30
2023-04-22T07:27:09.239Z,17.60
2023-04-22T07:27:42.616Z,18.05
2023-04-22T07:28:16.006Z,20.40
2023-04-22T07:28:49.592Z,17.52
2023-04-22T07:29:23.389Z,18.37
2023-04-22T07:29:56.969Z,19.27
2023-04-22T07:30:31.074Z,17.05